createdAt,value
2019-01-18T00:00:04.012Z,-0.20
2019-01-18T00:02:44.970Z,-0.30
2019-01-18T00:05:25.763Z,-0.30
2019-01-18T00:08:09.881Z,-0.20
2019-01-18T00:10:39.026Z,-0.40
2019-01-18T00:13:27.169Z,-0.40
2019-01-18T00:16:15.385Z,-0.30
2019-01-18T00:18:44.606Z,-0.30
2019-01-18T00:21:32.818Z,-0.30
2019-01-18T00:24:17.070Z,-0.30
2019-01-18T00:26:46.205Z,-0.30
2019-01-18T00:29:34.402Z,-0.30
2019-01-18T00:32:22.597Z,-0.30
2019-01-18T00:35:08.516Z,-0.30
2019-01-18T00:37:49.914Z,-0.20
2019-01-18T00:40:30.732Z,-0.30
2019-01-18T00:43:11.708Z,-0.10
2019-01-18T00:45:52.913Z,-0.20
2019-01-18T00:48:21.907Z,-0.20
2019-01-18T00:51:10.111Z,-0.10
2019-01-18T00:53:58.281Z,-0.20
2019-01-18T00:56:39.649Z,-0.20
2019-01-18T00:59:21.079Z,-0.20
2019-01-18T01:02:02.010Z,-0.30
2019-01-18T01:04:41.247Z,-0.30
2019-01-18T01:07:22.475Z,-0.20
2019-01-18T01:10:02.916Z,-0.20
2019-01-18T01:12:43.786Z,-0.30
2019-01-18T01:15:24.636Z,-0.10
2019-01-18T01:18:08.809Z,-0.20
2019-01-18T01:20:37.944Z,0.00
2019-01-18T01:23:07.110Z,0.00
2019-01-18T01:25:55.801Z,0.10
2019-01-18T01:28:44.069Z,0.10
2019-01-18T01:31:25.207Z,0.00
2019-01-18T01:34:06.182Z,0.10
2019-01-18T01:36:46.991Z,0.00
2019-01-18T01:39:27.794Z,0.00
2019-01-18T01:42:08.277Z,0.00
2019-01-18T01:44:48.739Z,-1.30
2019-01-18T01:47:30.012Z,0.10
2019-01-18T01:50:11.202Z,0.00
2019-01-18T01:55:34.055Z,0.00
2019-01-18T02:01:06.088Z,0.00
2019-01-18T02:03:51.263Z,0.00
2019-01-18T02:06:32.223Z,0.00
2019-01-18T02:12:27.024Z,-0.10
2019-01-18T02:15:16.168Z,0.10
2019-01-18T02:18:02.351Z,0.00
2019-01-18T02:20:43.412Z,0.00
2019-01-18T02:23:27.043Z,0.10
2019-01-18T02:26:31.088Z,0.00
2019-01-18T02:28:59.253Z,0.00
2019-01-18T02:34:22.116Z,0.00
2019-01-18T02:37:07.180Z,-0.10
2019-01-18T02:39:37.389Z,0.00
2019-01-18T02:42:25.536Z,-0.20
2019-01-18T02:45:05.676Z,-0.10
2019-01-18T02:47:47.498Z,-0.10
2019-01-18T02:50:28.876Z,-0.10
2019-01-18T02:53:10.107Z,-0.10
2019-01-18T02:55:50.775Z,-0.20
2019-01-18T02:58:31.340Z,-0.10
2019-01-18T03:01:12.294Z,-0.20
2019-01-18T03:06:35.646Z,-0.30
2019-01-18T03:09:16.774Z,-0.40
2019-01-18T03:11:57.795Z,-0.40
2019-01-18T03:14:38.811Z,-0.50
2019-01-18T03:17:19.345Z,-0.60
2019-01-18T03:20:00.298Z,-0.60
2019-01-18T03:22:41.028Z,-0.60
2019-01-18T03:25:21.928Z,-0.60
2019-01-18T03:28:02.898Z,-0.70
2019-01-18T03:30:44.049Z,-0.70
2019-01-18T03:33:26.102Z,-0.70
2019-01-18T03:36:06.729Z,-0.80
2019-01-18T03:38:47.988Z,-0.70
2019-01-18T03:44:10.586Z,-0.80
2019-01-18T03:46:51.145Z,-0.70
2019-01-18T03:49:31.979Z,-0.70
2019-01-18T03:52:14.948Z,-0.80
2019-01-18T03:58:12.029Z,-0.80
2019-01-18T04:00:56.329Z,-0.80
2019-01-18T04:03:25.463Z,-0.90
2019-01-18T04:05:54.490Z,-0.90
2019-01-18T04:08:42.665Z,-0.90
2019-01-18T04:11:27.055Z,-0.90
2019-01-18T04:14:08.018Z,-0.90
2019-01-18T04:16:48.805Z,-0.90
2019-01-18T04:19:17.702Z,-0.90
2019-01-18T04:22:05.899Z,-0.90
2019-01-18T04:24:49.470Z,-0.90
2019-01-18T04:27:18.480Z,-1.00
2019-01-18T04:30:08.154Z,-0.90
2019-01-18T04:32:56.269Z,-1.00
2019-01-18T04:35:44.505Z,-1.00
2019-01-18T04:41:17.094Z,-1.00
2019-01-18T04:43:58.143Z,-1.10
2019-01-18T04:46:27.207Z,-1.10
2019-01-18T04:49:15.486Z,-1.10
2019-01-18T04:51:56.893Z,-1.10
2019-01-18T04:54:38.325Z,-1.10
2019-01-18T04:57:19.685Z,-1.20
2019-01-18T04:59:48.935Z,-1.10
2019-01-18T05:02:37.081Z,-1.20
2019-01-18T05:05:25.199Z,-1.20
2019-01-18T05:08:13.400Z,-1.20
2019-01-18T05:10:42.504Z,-1.10
2019-01-18T05:13:30.740Z,-1.30
2019-01-18T05:19:01.132Z,-1.30
2019-01-18T05:21:41.928Z,-1.30
2019-01-18T05:24:22.951Z,-1.50
2019-01-18T05:27:03.713Z,-1.40
2019-01-18T05:29:44.514Z,-1.40
2019-01-18T05:32:26.381Z,-1.40
2019-01-18T05:35:07.207Z,-1.50
2019-01-18T05:37:48.166Z,-1.50
2019-01-18T05:40:28.817Z,-1.50
2019-01-18T05:43:09.273Z,-1.50
2019-01-18T05:45:49.863Z,-1.40
2019-01-18T05:48:30.531Z,-1.50
2019-01-18T05:51:11.433Z,-1.40
2019-01-18T05:53:40.645Z,-1.40
2019-01-18T05:56:28.839Z,-1.50
2019-01-18T05:59:17.152Z,-3.10
2019-01-18T06:02:01.347Z,-1.40
2019-01-18T06:07:29.067Z,-1.50
2019-01-18T06:10:10.170Z,-1.40
2019-01-18T06:12:51.264Z,-1.20
2019-01-18T06:15:31.881Z,-1.30
2019-01-18T06:18:15.655Z,-1.40
2019-01-18T06:23:39.085Z,-1.30
2019-01-18T06:26:08.556Z,-1.40
2019-01-18T06:28:57.234Z,-1.50
2019-01-18T06:31:45.925Z,-1.50
2019-01-18T06:34:29.776Z,-1.50
2019-01-18T06:37:11.040Z,-1.50
2019-01-18T06:39:40.193Z,-1.50
2019-01-18T06:42:28.504Z,-1.50
2019-01-18T06:45:17.462Z,-1.50
2019-01-18T06:50:46.588Z,-1.40
2019-01-18T06:53:27.595Z,-1.50
2019-01-18T06:58:59.060Z,-1.40
2019-01-18T07:01:47.147Z,-1.40
2019-01-18T07:04:27.624Z,-1.40
2019-01-18T07:07:08.462Z,-1.40
2019-01-18T07:09:49.497Z,-1.40
2019-01-18T07:12:30.182Z,-1.30
2019-01-18T07:15:11.101Z,-1.30
2019-01-18T07:17:40.260Z,-1.20
2019-01-18T07:20:28.518Z,-1.30
2019-01-18T07:23:16.848Z,-1.40
2019-01-18T07:25:57.819Z,-1.50
2019-01-18T07:31:27.614Z,-1.50
2019-01-18T07:34:08.698Z,-1.50
2019-01-18T07:36:50.003Z,-1.60
2019-01-18T07:39:30.998Z,-1.70
2019-01-18T07:42:14.522Z,-1.70
2019-01-18T07:47:40.392Z,-1.80
2019-01-18T07:50:21.240Z,-1.60
2019-01-18T07:53:01.682Z,-1.60
2019-01-18T07:55:42.909Z,-1.70
2019-01-18T07:58:23.734Z,-1.50
2019-01-18T08:03:52.888Z,-1.50
2019-01-18T08:09:12.176Z,-1.50
2019-01-18T08:12:00.351Z,-1.60
2019-01-18T08:14:41.400Z,-1.70
2019-01-18T08:17:10.593Z,-1.60
2019-01-18T08:19:58.875Z,-1.60
2019-01-18T08:22:47.154Z,-1.60
2019-01-18T08:25:28.622Z,-1.50
2019-01-18T08:28:09.329Z,-1.30
2019-01-18T08:30:50.416Z,-1.20
2019-01-18T08:36:19.341Z,-1.30
2019-01-18T08:38:59.879Z,-1.10
2019-01-18T08:41:40.410Z,-1.00
2019-01-18T08:44:20.885Z,-0.80
2019-01-18T08:47:02.239Z,-0.70
2019-01-18T08:49:46.471Z,-0.70
2019-01-18T08:55:18.861Z,-0.40
2019-01-18T09:00:33.499Z,-0.30
2019-01-18T09:03:21.797Z,-0.30
2019-01-18T09:06:11.045Z,-0.40
2019-01-18T09:08:51.479Z,-0.40
2019-01-18T09:11:32.721Z,-0.40
2019-01-18T09:17:03.190Z,-0.60
2019-01-18T09:19:46.620Z,-0.60
2019-01-18T09:22:16.396Z,-0.60
2019-01-18T09:25:05.681Z,-0.60
2019-01-18T09:27:48.325Z,-0.60
2019-01-18T09:33:51.574Z,-0.40
2019-01-18T09:36:32.468Z,-0.40
2019-01-18T09:39:16.260Z,-0.20
2019-01-18T09:41:57.053Z,0.00
2019-01-18T09:44:38.064Z,0.00
2019-01-18T09:47:07.490Z,0.10
2019-01-18T09:50:05.918Z,0.10
2019-01-18T09:52:54.168Z,0.10
2019-01-18T09:55:38.512Z,0.10
2019-01-18T10:01:02.955Z,0.20
2019-01-18T10:03:44.759Z,0.40
2019-01-18T10:06:45.316Z,0.30
2019-01-18T10:09:27.068Z,0.10
2019-01-18T10:12:11.842Z,0.30
2019-01-18T10:14:54.212Z,0.40
2019-01-18T10:17:41.315Z,0.50
2019-01-18T10:20:22.982Z,0.80
2019-01-18T10:23:06.746Z,1.30
2019-01-18T10:25:47.956Z,1.50
2019-01-18T10:28:31.566Z,1.70
2019-01-18T10:31:12.926Z,1.90
2019-01-18T10:33:42.697Z,2.20
2019-01-18T10:36:32.069Z,2.40
2019-01-18T10:42:03.895Z,2.60
2019-01-18T10:44:52.662Z,2.90
2019-01-18T10:47:38.316Z,2.90
2019-01-18T10:50:10.552Z,2.90
2019-01-18T10:52:58.817Z,2.50
2019-01-18T10:55:47.125Z,2.20
2019-01-18T10:58:31.377Z,2.00
2019-01-18T11:04:03.310Z,2.00
2019-01-18T11:09:35.779Z,2.00
2019-01-18T11:15:05.243Z,1.80
2019-01-18T11:17:46.887Z,1.80
2019-01-18T11:20:27.993Z,1.70
2019-01-18T11:23:09.449Z,1.70
2019-01-18T11:25:40.910Z,1.70
2019-01-18T11:28:29.111Z,1.90
2019-01-18T11:31:13.718Z,1.90
2019-01-18T11:36:46.373Z,1.80
2019-01-18T11:39:26.876Z,2.30
2019-01-18T11:42:07.480Z,2.80
2019-01-18T11:44:48.378Z,3.00
2019-01-18T11:47:29.750Z,3.00
2019-01-18T11:53:04.811Z,2.90
2019-01-18T11:55:53.088Z,2.60
2019-01-18T11:58:22.286Z,2.70
2019-01-18T12:01:10.637Z,3.00
2019-01-18T12:03:58.955Z,3.00
2019-01-18T12:09:31.736Z,3.30
2019-01-18T12:12:00.757Z,3.40
2019-01-18T12:14:29.889Z,3.50
2019-01-18T12:17:18.067Z,3.10
2019-01-18T12:20:08.371Z,3.10
2019-01-18T12:25:35.986Z,3.10
2019-01-18T12:28:06.250Z,3.20
2019-01-18T12:30:47.142Z,3.00
2019-01-18T12:33:28.711Z,2.80
2019-01-18T12:36:10.245Z,2.80
2019-01-18T12:41:37.851Z,3.10
2019-01-18T12:44:18.806Z,3.20
2019-01-18T12:46:59.416Z,3.50
2019-01-18T12:55:10.774Z,3.70
2019-01-18T12:57:51.802Z,3.40
2019-01-18T13:00:32.974Z,3.70
2019-01-18T13:03:02.218Z,3.60
2019-01-18T13:06:02.329Z,3.50
2019-01-18T13:12:00.006Z,3.40
2019-01-18T13:14:41.198Z,3.50
2019-01-18T13:17:21.703Z,3.80
2019-01-18T13:20:02.867Z,3.90
2019-01-18T13:22:44.022Z,3.90
2019-01-18T13:28:08.842Z,3.30
2019-01-18T13:30:49.376Z,3.30
2019-01-18T13:41:44.634Z,2.70
2019-01-18T13:44:32.754Z,2.40
2019-01-18T13:47:18.228Z,2.60
2019-01-18T13:49:56.370Z,2.70
2019-01-18T13:52:37.536Z,2.60
2019-01-18T13:55:09.670Z,2.50
2019-01-18T13:57:57.965Z,2.30
2019-01-18T14:00:46.260Z,2.10
2019-01-18T14:03:27.575Z,2.10
2019-01-18T14:08:50.399Z,2.00
2019-01-18T14:11:31.762Z,2.00
2019-01-18T14:14:14.404Z,2.00
2019-01-18T14:16:55.747Z,2.10
2019-01-18T14:20:08.192Z,2.00
2019-01-18T14:22:27.934Z,2.10
2019-01-18T14:25:09.390Z,2.10
2019-01-18T14:27:51.255Z,2.00
2019-01-18T14:30:42.023Z,1.80
2019-01-18T14:33:27.395Z,2.00
2019-01-18T14:41:55.882Z,1.90
2019-01-18T14:44:36.719Z,1.90
2019-01-18T14:47:17.231Z,1.90
2019-01-18T14:49:58.238Z,1.80
2019-01-18T14:52:39.754Z,1.80
2019-01-18T14:58:04.956Z,1.70
2019-01-18T15:00:47.291Z,1.70
2019-01-18T15:03:28.606Z,1.70
2019-01-18T15:06:09.756Z,1.60
2019-01-18T15:08:50.626Z,1.40
2019-01-18T15:11:31.931Z,1.50
2019-01-18T15:14:20.657Z,1.60
2019-01-18T15:17:08.967Z,1.50
2019-01-18T15:19:52.474Z,1.40
2019-01-18T15:22:33.257Z,1.50
2019-01-18T15:30:34.822Z,1.20
2019-01-18T15:33:23.100Z,1.20
2019-01-18T15:41:56.330Z,1.30
2019-01-18T15:44:38.444Z,1.30
2019-01-18T15:47:19.353Z,1.00
2019-01-18T15:50:00.789Z,1.10
2019-01-18T15:52:29.720Z,1.00
2019-01-18T15:55:17.998Z,0.90
2019-01-18T15:58:06.937Z,0.90
2019-01-18T16:00:55.438Z,0.90
2019-01-18T16:03:43.783Z,0.80
2019-01-18T16:06:26.304Z,0.80
2019-01-18T16:09:08.524Z,0.60
2019-01-18T16:14:34.549Z,0.60
2019-01-18T16:17:15.223Z,0.50
2019-01-18T16:19:45.196Z,0.40
2019-01-18T16:22:48.944Z,0.40
2019-01-18T16:25:08.868Z,0.40
2019-01-18T16:31:11.319Z,0.00
2019-01-18T16:33:52.079Z,0.00
2019-01-18T16:36:32.879Z,-0.10
2019-01-18T16:39:16.011Z,-0.20
2019-01-18T16:41:58.410Z,-0.10
2019-01-18T16:44:40.255Z,-0.10
2019-01-18T16:47:22.578Z,0.00
2019-01-18T16:50:03.963Z,-0.10
2019-01-18T16:52:44.695Z,0.00
2019-01-18T16:55:28.787Z,-0.10
2019-01-18T17:00:47.256Z,-0.10
2019-01-18T17:03:35.510Z,-0.20
2019-01-18T17:06:16.698Z,-0.20
2019-01-18T17:08:46.879Z,-0.30
2019-01-18T17:11:22.905Z,-0.40
2019-01-18T17:17:26.242Z,-0.50
2019-01-18T17:19:55.315Z,-0.50
2019-01-18T17:22:43.660Z,-0.60
2019-01-18T17:25:13.166Z,-0.70
2019-01-18T17:28:03.211Z,-0.80
2019-01-18T17:30:52.486Z,-0.90
2019-01-18T17:33:43.676Z,-0.90
2019-01-18T17:36:24.209Z,-1.00
2019-01-18T17:39:08.692Z,-1.00
2019-01-18T17:41:51.079Z,-1.10
2019-01-18T17:44:32.771Z,-1.20
2019-01-18T17:47:24.575Z,-1.30
2019-01-18T17:50:05.646Z,-1.30
2019-01-18T17:53:13.313Z,-1.40
2019-01-18T17:56:20.749Z,-1.40
2019-01-18T17:59:03.155Z,-1.50
2019-01-18T18:01:44.095Z,-1.40
2019-01-18T18:07:16.126Z,-1.40
2019-01-18T18:10:03.193Z,-1.40
2019-01-18T18:12:43.917Z,-1.50
2019-01-18T18:15:26.151Z,-1.50
2019-01-18T18:18:07.372Z,-1.50
2019-01-18T18:24:06.156Z,-1.50
2019-01-18T18:26:47.124Z,-1.60
2019-01-18T18:29:29.331Z,-1.50
2019-01-18T18:32:38.610Z,-1.50
2019-01-18T18:35:19.947Z,-1.40
2019-01-18T18:38:01.242Z,-1.30
2019-01-18T18:40:46.704Z,-1.30
2019-01-18T18:43:54.211Z,-1.20
2019-01-18T18:46:38.437Z,-1.30
2019-01-18T18:52:04.563Z,-1.10
2019-01-18T18:54:48.073Z,-1.30
2019-01-18T18:57:39.388Z,-1.10
2019-01-18T19:00:46.843Z,-1.10
2019-01-18T19:06:56.049Z,-1.10
2019-01-18T19:09:36.989Z,-1.00
2019-01-18T19:12:22.858Z,-1.10
2019-01-18T19:17:55.755Z,-1.10
2019-01-18T19:21:03.311Z,-1.10
2019-01-18T19:23:44.356Z,-1.10
2019-01-18T19:26:27.951Z,-1.00
2019-01-18T19:29:09.234Z,-1.00
2019-01-18T19:37:46.992Z,-1.10
2019-01-18T19:40:28.235Z,-1.20
2019-01-18T19:46:42.245Z,-1.40
2019-01-18T19:52:09.547Z,-1.60
2019-01-18T19:54:46.528Z,-1.60
2019-01-18T19:57:54.047Z,-1.70
2019-01-18T20:01:01.490Z,-1.50
2019-01-18T20:03:42.318Z,-1.60
2019-01-18T20:06:26.954Z,-1.40
2019-01-18T20:09:10.838Z,-1.40
2019-01-18T20:14:42.555Z,-1.50
2019-01-18T20:20:12.237Z,-1.60
2019-01-18T20:22:53.244Z,-1.50
2019-01-18T20:26:01.321Z,-1.60
2019-01-18T20:32:04.014Z,-1.70
2019-01-18T20:34:45.145Z,-1.70
2019-01-18T20:37:27.201Z,-1.60
2019-01-18T20:40:34.790Z,-1.70
2019-01-18T20:43:16.101Z,-1.70
2019-01-18T20:48:51.533Z,-1.70
2019-01-18T21:03:36.983Z,-1.70
2019-01-18T21:06:34.047Z,-1.60
2019-01-18T21:09:27.408Z,-1.70
2019-01-18T21:12:08.884Z,-1.70
2019-01-18T21:14:49.560Z,-1.70
2019-01-18T21:17:57.039Z,-1.70
2019-01-18T21:21:06.836Z,-1.70
2019-01-18T21:23:47.885Z,-1.80
2019-01-18T21:26:29.311Z,-1.70
2019-01-18T21:32:33.316Z,-1.80
2019-01-18T21:35:40.815Z,-1.80
2019-01-18T21:38:43.067Z,-1.90
2019-01-18T21:44:05.164Z,-1.80
2019-01-18T21:46:46.682Z,-1.80
2019-01-18T21:49:27.793Z,-1.80
2019-01-18T21:54:56.912Z,-1.80
2019-01-18T21:57:41.404Z,-1.90
2019-01-18T22:00:22.824Z,-1.80
2019-01-18T22:06:26.231Z,-1.80
2019-01-18T22:09:08.742Z,-1.90
2019-01-18T22:11:50.057Z,-1.90
2019-01-18T22:14:46.652Z,-1.90
2019-01-18T22:17:43.546Z,-1.90
2019-01-18T22:20:45.022Z,-2.00
2019-01-18T22:23:35.709Z,-1.80
2019-01-18T22:26:21.129Z,-1.90
2019-01-18T22:29:02.523Z,-1.90
2019-01-18T22:32:14.806Z,-2.00
2019-01-18T22:35:00.179Z,-2.00
2019-01-18T22:37:44.355Z,-2.10
2019-01-18T22:40:27.929Z,-2.10
2019-01-18T22:43:12.523Z,-2.10
2019-01-18T22:45:56.897Z,-2.20
2019-01-18T22:48:38.919Z,-2.30
2019-01-18T22:52:09.705Z,-2.30
2019-01-18T22:54:56.463Z,-2.10
2019-01-18T22:57:43.919Z,-2.40
2019-01-18T23:00:56.114Z,-2.30
2019-01-18T23:03:38.011Z,-2.30
2019-01-18T23:06:19.172Z,-2.40
2019-01-18T23:09:02.284Z,-2.40
2019-01-18T23:11:43.365Z,-2.40
2019-01-18T23:14:24.272Z,-2.30
2019-01-18T23:17:05.584Z,-2.40
2019-01-18T23:19:47.395Z,-2.40
2019-01-18T23:22:55.257Z,-2.40
2019-01-18T23:25:36.635Z,-2.40
2019-01-18T23:28:17.335Z,-2.40
2019-01-18T23:30:58.319Z,-2.40
2019-01-18T23:34:05.817Z,-2.60
2019-01-18T23:36:56.866Z,-2.50
2019-01-18T23:40:04.495Z,-2.50
2019-01-18T23:42:52.213Z,-2.50
2019-01-18T23:45:31.527Z,-2.60
2019-01-18T23:48:12.195Z,-2.70
2019-01-18T23:51:19.682Z,-2.70
2019-01-18T23:54:00.920Z,-2.60
2019-01-18T23:56:42.571Z,-2.70
2019-01-18T23:59:23.557Z,-2.70
